createdAt,value
2018-03-27T00:00:01.568Z,21.90
2018-03-27T00:01:01.547Z,20.00
2018-03-27T00:02:01.509Z,20.60
2018-03-27T00:03:01.485Z,19.80
2018-03-27T00:04:01.465Z,21.70
2018-03-27T00:05:01.438Z,20.40
2018-03-27T00:06:01.405Z,19.80
2018-03-27T00:07:01.374Z,20.80
2018-03-27T00:08:01.349Z,20.30
2018-03-27T00:09:01.321Z,21.00
2018-03-27T00:10:01.362Z,22.30
2018-03-27T00:11:01.265Z,21.60
2018-03-27T00:12:01.241Z,22.60
2018-03-27T00:13:01.215Z,23.50
2018-03-27T00:14:01.190Z,23.70
2018-03-27T00:15:01.168Z,24.00
2018-03-27T00:16:01.141Z,24.70
2018-03-27T00:17:01.101Z,23.60
2018-03-27T00:18:01.083Z,23.90
2018-03-27T00:19:01.043Z,23.00
2018-03-27T00:20:01.027Z,24.00
2018-03-27T00:21:01.006Z,22.20
2018-03-27T00:22:00.977Z,22.90
2018-03-27T00:23:00.943Z,23.40
2018-03-27T00:24:00.916Z,24.50
2018-03-27T00:25:00.893Z,22.20
2018-03-27T00:26:00.864Z,24.90
2018-03-27T00:27:00.835Z,25.10
2018-03-27T00:28:00.814Z,23.00
2018-03-27T00:29:00.781Z,23.70
2018-03-27T00:30:00.760Z,25.50
2018-03-27T00:31:00.729Z,25.30
2018-03-27T00:32:00.694Z,24.10
2018-03-27T00:33:00.685Z,22.70
2018-03-27T00:34:00.649Z,24.80
2018-03-27T00:35:00.620Z,27.40
2018-03-27T00:36:00.590Z,24.00
2018-03-27T00:37:00.564Z,25.80
2018-03-27T00:38:00.538Z,26.90
2018-03-27T00:39:00.513Z,28.80
2018-03-27T00:40:00.483Z,26.30
2018-03-27T00:41:00.473Z,26.30
2018-03-27T00:42:00.427Z,27.70
2018-03-27T00:43:00.406Z,24.70
2018-03-27T00:44:00.385Z,28.90
2018-03-27T00:45:00.346Z,30.90
2018-03-27T00:46:00.322Z,30.00
2018-03-27T00:47:00.301Z,29.20
2018-03-27T00:48:00.269Z,29.40
2018-03-27T00:49:00.253Z,31.10
2018-03-27T00:50:00.215Z,29.30
2018-03-27T00:51:00.185Z,31.70
2018-03-27T00:52:00.161Z,31.40
2018-03-27T00:53:00.129Z,31.80
2018-03-27T00:54:00.103Z,32.90
2018-03-27T00:55:00.080Z,33.60
2018-03-27T00:56:00.048Z,35.20
2018-03-27T00:57:00.029Z,33.80
2018-03-27T00:58:00.013Z,35.50
2018-03-27T00:58:59.967Z,36.90
2018-03-27T00:59:59.949Z,35.50
2018-03-27T01:00:59.914Z,36.90
2018-03-27T01:01:59.889Z,36.90
2018-03-27T01:02:59.867Z,37.50
2018-03-27T01:03:59.829Z,38.00
2018-03-27T01:04:59.815Z,38.00
2018-03-27T01:05:59.784Z,44.20
2018-03-27T01:06:59.752Z,41.20
2018-03-27T01:07:59.730Z,43.50
2018-03-27T01:08:59.691Z,46.50
2018-03-27T01:09:59.674Z,44.30
2018-03-27T01:10:59.643Z,44.20
2018-03-27T01:11:59.624Z,43.80
2018-03-27T01:12:59.588Z,43.10
2018-03-27T01:13:59.565Z,44.40
2018-03-27T01:14:59.536Z,47.40
2018-03-27T01:15:59.506Z,47.10
2018-03-27T01:16:59.510Z,53.70
2018-03-27T01:17:59.457Z,50.30
2018-03-27T01:18:59.427Z,47.80
2018-03-27T01:19:59.455Z,51.00
2018-03-27T01:20:59.365Z,51.10
2018-03-27T01:21:59.349Z,56.00
2018-03-27T01:22:59.316Z,52.20
2018-03-27T01:23:59.287Z,56.20
2018-03-27T01:24:59.284Z,54.40
2018-03-27T01:25:59.234Z,54.80
2018-03-27T01:26:59.218Z,54.20
2018-03-27T01:27:59.179Z,56.40
2018-03-27T01:28:59.160Z,60.10
2018-03-27T01:29:59.125Z,64.40
2018-03-27T01:30:59.106Z,62.10
2018-03-27T01:31:59.078Z,67.70
2018-03-27T01:32:59.040Z,66.00
2018-03-27T01:33:59.018Z,66.80
2018-03-27T01:34:58.991Z,68.30
2018-03-27T01:35:58.958Z,71.70
2018-03-27T01:36:58.943Z,69.00
2018-03-27T01:37:58.911Z,72.90
2018-03-27T01:38:58.880Z,70.40
2018-03-27T01:39:58.854Z,75.50
2018-03-27T01:40:58.827Z,75.00
2018-03-27T01:41:58.808Z,74.20
2018-03-27T01:42:58.773Z,79.00
2018-03-27T01:43:58.748Z,76.40
2018-03-27T01:44:58.728Z,75.70
2018-03-27T01:45:58.691Z,76.50
2018-03-27T01:46:58.662Z,80.20
2018-03-27T01:47:58.639Z,77.80
2018-03-27T01:48:58.608Z,84.80
2018-03-27T01:49:58.586Z,86.60
2018-03-27T01:50:58.555Z,86.50
2018-03-27T01:51:58.533Z,87.60
2018-03-27T01:52:58.499Z,87.40
2018-03-27T01:53:58.481Z,87.00
2018-03-27T01:54:58.447Z,93.60
2018-03-27T01:55:58.413Z,97.10
2018-03-27T01:56:58.399Z,92.50
2018-03-27T01:57:58.366Z,91.40
2018-03-27T01:58:58.338Z,91.20
2018-03-27T01:59:58.312Z,95.40
2018-03-27T02:00:58.288Z,98.10
2018-03-27T02:01:58.266Z,98.20
2018-03-27T02:02:58.226Z,96.70
2018-03-27T02:03:58.203Z,94.30
2018-03-27T02:04:58.176Z,90.30
2018-03-27T02:05:58.142Z,88.50
2018-03-27T02:06:58.128Z,82.20
2018-03-27T02:07:58.093Z,84.00
2018-03-27T02:08:58.063Z,85.80
2018-03-27T02:09:58.031Z,82.30
2018-03-27T02:10:58.017Z,81.10
2018-03-27T02:11:57.980Z,88.00
2018-03-27T02:12:57.960Z,89.00
2018-03-27T02:13:57.937Z,95.70
2018-03-27T02:14:57.897Z,99.40
2018-03-27T02:15:57.895Z,100.80
2018-03-27T02:16:57.849Z,98.10
2018-03-27T02:17:57.824Z,99.50
2018-03-27T02:18:57.788Z,103.10
2018-03-27T02:19:57.769Z,110.00
2018-03-27T02:20:57.738Z,104.90
2018-03-27T02:21:57.711Z,106.50
2018-03-27T02:22:57.689Z,113.40
2018-03-27T02:23:57.664Z,111.40
2018-03-27T02:24:57.634Z,113.60
2018-03-27T02:25:57.605Z,110.50
2018-03-27T02:26:57.583Z,106.80
2018-03-27T02:27:57.552Z,118.70
2018-03-27T02:28:57.518Z,110.70
2018-03-27T02:29:57.494Z,110.40
2018-03-27T02:30:57.467Z,109.10
2018-03-27T02:31:57.439Z,121.70
2018-03-27T02:32:57.415Z,114.30
2018-03-27T02:33:57.382Z,114.90
2018-03-27T02:34:57.359Z,118.80
2018-03-27T02:35:57.334Z,119.20
2018-03-27T02:36:57.308Z,114.30
2018-03-27T02:37:57.279Z,114.40
2018-03-27T02:38:57.251Z,116.90
2018-03-27T02:39:57.219Z,115.10
2018-03-27T02:40:57.203Z,116.20
2018-03-27T02:41:57.171Z,112.60
2018-03-27T02:42:57.137Z,115.70
2018-03-27T02:43:57.105Z,121.70
2018-03-27T02:44:57.087Z,129.30
2018-03-27T02:45:57.102Z,125.40
2018-03-27T02:46:57.037Z,140.10
2018-03-27T02:47:57.009Z,138.40
2018-03-27T02:48:56.971Z,142.70
2018-03-27T02:49:56.965Z,149.50
2018-03-27T02:50:56.942Z,150.50
2018-03-27T02:51:56.888Z,150.00
2018-03-27T02:52:56.869Z,146.90
2018-03-27T02:53:56.835Z,143.20
2018-03-27T02:54:56.820Z,145.30
2018-03-27T02:55:56.791Z,148.20
2018-03-27T02:56:56.752Z,143.70
2018-03-27T02:57:56.727Z,141.10
2018-03-27T02:58:56.701Z,135.50
2018-03-27T02:59:56.677Z,136.90
2018-03-27T03:00:56.647Z,137.40
2018-03-27T03:01:56.623Z,132.80
2018-03-27T03:02:56.591Z,135.10
2018-03-27T03:03:56.569Z,138.50
2018-03-27T03:04:56.541Z,138.20
2018-03-27T03:05:56.513Z,133.30
2018-03-27T03:06:56.482Z,135.10
2018-03-27T03:07:56.462Z,128.60
2018-03-27T03:08:56.428Z,139.20
2018-03-27T03:09:56.397Z,133.10
2018-03-27T03:10:56.375Z,130.40
2018-03-27T03:11:56.349Z,134.50
2018-03-27T03:12:56.317Z,138.30
2018-03-27T03:13:56.294Z,135.70
2018-03-27T03:14:56.274Z,133.40
2018-03-27T03:15:56.236Z,140.80
2018-03-27T03:16:56.211Z,140.40
2018-03-27T03:17:56.176Z,141.50
2018-03-27T03:18:56.156Z,149.90
2018-03-27T03:19:56.132Z,149.60
2018-03-27T03:20:56.096Z,161.30
2018-03-27T03:21:56.081Z,145.20
2018-03-27T03:22:56.041Z,140.40
2018-03-27T03:23:56.020Z,143.40
2018-03-27T03:24:55.989Z,152.40
2018-03-27T03:25:55.963Z,154.30
2018-03-27T03:26:55.941Z,155.30
2018-03-27T03:27:55.934Z,156.50
2018-03-27T03:28:55.877Z,157.10
2018-03-27T03:29:55.842Z,147.90
2018-03-27T03:30:55.824Z,157.00
2018-03-27T03:31:55.793Z,151.00
2018-03-27T03:32:55.762Z,163.70
2018-03-27T03:33:55.747Z,160.90
2018-03-27T03:34:55.714Z,163.90
2018-03-27T03:35:55.684Z,158.20
2018-03-27T03:36:55.666Z,152.20
2018-03-27T03:37:55.633Z,156.80
2018-03-27T03:38:55.606Z,155.00
2018-03-27T03:39:55.586Z,159.60
2018-03-27T03:40:55.550Z,167.00
2018-03-27T03:41:55.527Z,154.30
2018-03-27T03:42:55.500Z,158.70
2018-03-27T03:43:55.469Z,176.90
2018-03-27T03:44:55.438Z,165.10
2018-03-27T03:45:55.421Z,174.00
2018-03-27T03:46:55.391Z,185.10
2018-03-27T03:47:55.362Z,177.10
2018-03-27T03:48:55.326Z,171.50
2018-03-27T03:49:55.302Z,168.90
2018-03-27T03:50:55.280Z,176.40
2018-03-27T03:51:55.258Z,159.40
2018-03-27T03:52:55.219Z,182.60
2018-03-27T03:53:55.201Z,175.70
2018-03-27T03:54:55.163Z,170.20
2018-03-27T03:55:55.140Z,185.00
2018-03-27T03:56:55.118Z,185.30
2018-03-27T03:57:55.082Z,184.00
2018-03-27T03:58:55.067Z,174.70
2018-03-27T03:59:55.035Z,192.20
2018-03-27T04:00:55.000Z,221.50
2018-03-27T04:01:54.970Z,207.80
2018-03-27T04:02:54.952Z,219.30
2018-03-27T04:03:54.926Z,212.10
2018-03-27T04:04:54.891Z,232.40
2018-03-27T04:05:54.867Z,242.80
2018-03-27T04:06:54.833Z,230.20
2018-03-27T04:07:54.809Z,240.20
2018-03-27T04:08:54.779Z,241.90
2018-03-27T04:09:54.794Z,242.80
2018-03-27T04:10:54.726Z,246.30
2018-03-27T04:11:54.704Z,235.60
2018-03-27T04:12:54.677Z,239.20
2018-03-27T04:13:54.645Z,229.40
2018-03-27T04:14:54.623Z,235.00
2018-03-27T04:15:54.592Z,245.30
2018-03-27T04:16:54.556Z,257.80
2018-03-27T04:17:54.533Z,246.90
2018-03-27T04:18:54.508Z,268.80
2018-03-27T04:19:54.500Z,275.40
2018-03-27T04:20:54.468Z,255.00
2018-03-27T04:21:54.424Z,274.90
2018-03-27T04:22:54.396Z,263.00
2018-03-27T04:23:54.375Z,272.30
2018-03-27T04:24:54.354Z,270.40
2018-03-27T04:25:54.317Z,265.20
2018-03-27T04:26:54.283Z,278.10
2018-03-27T04:27:54.264Z,260.60
2018-03-27T04:28:54.229Z,248.10
2018-03-27T04:29:54.204Z,264.50
2018-03-27T04:30:54.184Z,249.60
2018-03-27T04:31:54.158Z,236.40
2018-03-27T04:32:54.125Z,263.20
2018-03-27T04:33:54.095Z,243.50
2018-03-27T04:34:54.066Z,244.30
2018-03-27T04:35:54.053Z,235.80
2018-03-27T04:36:54.013Z,234.40
2018-03-27T04:37:53.983Z,244.80
2018-03-27T04:38:53.962Z,223.60
2018-03-27T04:39:53.929Z,229.10
2018-03-27T04:40:53.905Z,223.10
2018-03-27T04:41:53.875Z,228.70
2018-03-27T04:42:53.847Z,211.00
2018-03-27T04:43:53.826Z,222.00
2018-03-27T04:44:53.790Z,219.20
2018-03-27T04:45:53.766Z,230.10
2018-03-27T04:46:53.743Z,218.00
2018-03-27T04:47:53.737Z,219.40
2018-03-27T04:48:53.683Z,230.00
2018-03-27T04:49:53.661Z,221.50
2018-03-27T04:50:53.633Z,223.10
2018-03-27T04:51:53.599Z,201.10
2018-03-27T04:52:53.581Z,213.10
2018-03-27T04:53:53.552Z,213.50
2018-03-27T04:54:53.518Z,220.90
2018-03-27T04:55:53.499Z,209.80
2018-03-27T04:56:53.461Z,209.40
2018-03-27T04:57:53.446Z,198.50
2018-03-27T04:58:53.407Z,196.00
2018-03-27T04:59:53.381Z,209.60
2018-03-27T05:00:53.364Z,202.60
2018-03-27T05:01:53.327Z,209.70
2018-03-27T05:02:53.306Z,210.30
2018-03-27T05:03:53.289Z,203.00
2018-03-27T05:04:53.255Z,198.50
2018-03-27T05:05:53.220Z,213.20
2018-03-27T05:06:53.198Z,209.30
2018-03-27T05:07:53.169Z,201.00
2018-03-27T05:08:53.145Z,194.00
2018-03-27T05:09:53.106Z,175.00
2018-03-27T05:10:53.085Z,194.60
2018-03-27T05:11:53.084Z,182.20
2018-03-27T05:12:53.033Z,175.40
2018-03-27T05:13:52.998Z,193.00
2018-03-27T05:14:52.974Z,186.70
2018-03-27T05:15:52.946Z,186.80
2018-03-27T05:16:52.913Z,178.70
2018-03-27T05:17:52.894Z,201.40
2018-03-27T05:18:52.861Z,177.80
2018-03-27T05:19:52.837Z,195.80
2018-03-27T05:20:52.814Z,187.00
2018-03-27T05:21:52.780Z,188.70
2018-03-27T05:22:52.754Z,178.10
2018-03-27T05:23:52.731Z,172.60
2018-03-27T05:24:52.697Z,183.90
2018-03-27T05:25:52.677Z,178.10
2018-03-27T05:26:52.653Z,161.60
2018-03-27T05:27:52.612Z,183.80
2018-03-27T05:28:52.589Z,171.10
2018-03-27T05:29:52.569Z,168.50
2018-03-27T05:30:52.528Z,162.50
2018-03-27T05:31:52.509Z,166.80
2018-03-27T05:32:52.512Z,176.60
2018-03-27T05:33:52.443Z,161.60
2018-03-27T05:34:52.427Z,170.10
2018-03-27T05:35:52.392Z,161.50
2018-03-27T05:36:52.376Z,162.20
2018-03-27T05:37:52.349Z,160.50
2018-03-27T05:38:52.313Z,150.30
2018-03-27T05:39:52.288Z,158.10
2018-03-27T05:40:52.258Z,166.60
2018-03-27T05:41:52.228Z,152.00
2018-03-27T05:42:52.207Z,149.20
2018-03-27T05:43:52.172Z,160.80
2018-03-27T05:44:52.149Z,159.40
2018-03-27T05:45:52.120Z,152.30
2018-03-27T05:46:52.095Z,160.90
2018-03-27T05:47:52.077Z,165.30
2018-03-27T05:48:52.046Z,187.50
2018-03-27T05:49:52.013Z,172.70
2018-03-27T05:50:51.988Z,152.20
2018-03-27T05:51:51.989Z,153.50
2018-03-27T05:52:51.932Z,148.40
2018-03-27T05:53:51.903Z,156.20
2018-03-27T05:54:51.883Z,145.40
2018-03-27T05:55:51.869Z,155.50
2018-03-27T05:56:51.821Z,151.10
2018-03-27T05:57:51.792Z,148.50
2018-03-27T05:58:51.771Z,134.70
2018-03-27T05:59:51.742Z,129.50
2018-03-27T06:00:51.704Z,141.30
2018-03-27T06:01:51.687Z,129.50
2018-03-27T06:02:51.652Z,133.40
2018-03-27T06:03:51.625Z,133.60
2018-03-27T06:04:51.605Z,125.90
2018-03-27T06:05:51.567Z,134.10
2018-03-27T06:06:51.549Z,146.20
2018-03-27T06:07:51.522Z,137.50
2018-03-27T06:08:51.491Z,147.70
2018-03-27T06:09:51.457Z,148.30
2018-03-27T06:10:51.434Z,133.60
2018-03-27T06:11:51.417Z,138.40
2018-03-27T06:12:51.385Z,144.10
2018-03-27T06:13:51.358Z,129.50
2018-03-27T06:14:51.326Z,152.70
2018-03-27T06:15:51.299Z,141.50
2018-03-27T06:16:51.277Z,133.70
2018-03-27T06:17:51.251Z,127.60
2018-03-27T06:18:51.219Z,124.00
2018-03-27T06:19:51.192Z,127.00
2018-03-27T06:20:51.156Z,126.90
2018-03-27T06:21:51.136Z,131.00
2018-03-27T06:22:51.106Z,132.20
2018-03-27T06:23:51.078Z,125.10
2018-03-27T06:24:51.054Z,132.00
2018-03-27T06:25:51.055Z,122.90
2018-03-27T06:26:51.000Z,124.20
2018-03-27T06:27:50.971Z,124.10
2018-03-27T06:28:50.943Z,121.20
2018-03-27T06:29:50.916Z,118.80
2018-03-27T06:30:50.892Z,119.20
2018-03-27T06:31:50.866Z,121.10
2018-03-27T06:32:50.827Z,112.10
2018-03-27T06:33:50.850Z,114.00
2018-03-27T06:34:50.779Z,107.20
2018-03-27T06:35:50.749Z,103.20
2018-03-27T06:36:50.726Z,100.50
2018-03-27T06:37:50.702Z,99.30
2018-03-27T06:38:50.666Z,96.90
2018-03-27T06:39:50.642Z,95.50
2018-03-27T06:40:50.619Z,87.60
2018-03-27T06:41:50.586Z,82.10
2018-03-27T06:42:50.561Z,84.10
2018-03-27T06:43:50.533Z,77.40
2018-03-27T06:44:50.499Z,77.40
2018-03-27T06:45:50.487Z,64.80
2018-03-27T06:46:50.451Z,67.20
2018-03-27T06:47:50.480Z,69.70
2018-03-27T06:48:50.405Z,70.20
2018-03-27T06:49:50.375Z,67.30
2018-03-27T06:50:50.340Z,72.80
2018-03-27T06:51:50.324Z,72.10
2018-03-27T06:52:50.296Z,70.90
2018-03-27T06:53:50.258Z,65.80
2018-03-27T06:54:50.235Z,65.70
2018-03-27T06:55:50.211Z,63.40
2018-03-27T06:56:50.185Z,59.00
2018-03-27T06:57:50.168Z,60.60
2018-03-27T06:58:50.119Z,62.70
2018-03-27T06:59:50.102Z,65.10
2018-03-27T07:00:50.084Z,65.30
2018-03-27T07:01:50.060Z,63.50
2018-03-27T07:02:50.054Z,63.60
2018-03-27T07:03:49.999Z,64.20
2018-03-27T07:04:49.972Z,69.60
2018-03-27T07:05:49.938Z,65.40
2018-03-27T07:06:49.929Z,63.40
2018-03-27T07:07:49.877Z,60.70
2018-03-27T07:08:49.862Z,62.50
2018-03-27T07:09:49.828Z,61.70
2018-03-27T07:10:49.814Z,64.20
2018-03-27T07:11:49.774Z,60.80
2018-03-27T07:12:49.749Z,58.00
2018-03-27T07:13:49.728Z,61.10
2018-03-27T07:14:49.724Z,57.00
2018-03-27T07:15:49.704Z,57.50
2018-03-27T07:16:49.641Z,55.10
2018-03-27T07:17:49.655Z,54.40
2018-03-27T07:18:49.578Z,55.60
2018-03-27T07:19:49.560Z,55.80
2018-03-27T07:20:49.532Z,58.00
2018-03-27T07:21:49.496Z,55.60
2018-03-27T07:22:49.477Z,57.50
2018-03-27T07:23:49.445Z,56.10
2018-03-27T07:24:49.424Z,60.00
2018-03-27T07:25:49.394Z,62.10
2018-03-27T07:26:49.363Z,63.60
2018-03-27T07:27:49.343Z,63.90
2018-03-27T07:28:49.311Z,66.00
2018-03-27T07:29:49.293Z,63.40
2018-03-27T07:30:49.253Z,61.60
2018-03-27T07:31:49.238Z,61.20
2018-03-27T07:32:49.202Z,58.70
2018-03-27T07:33:49.180Z,59.50
2018-03-27T07:34:49.153Z,59.90
2018-03-27T07:35:49.125Z,55.20
2018-03-27T07:36:49.098Z,54.60
2018-03-27T07:37:49.066Z,55.70
2018-03-27T07:38:49.042Z,55.90
2018-03-27T07:39:49.017Z,52.60
2018-03-27T07:40:48.990Z,49.80
2018-03-27T07:41:48.966Z,54.90
2018-03-27T07:42:48.935Z,47.80
2018-03-27T07:43:48.901Z,48.20
2018-03-27T07:44:48.880Z,45.60
2018-03-27T07:45:48.864Z,40.50
2018-03-27T07:46:48.826Z,41.80
2018-03-27T07:47:48.820Z,42.60
2018-03-27T07:48:48.773Z,40.90
2018-03-27T07:49:48.744Z,38.40
2018-03-27T07:50:48.785Z,40.20
2018-03-27T07:51:48.698Z,42.30
2018-03-27T07:52:48.665Z,41.60
2018-03-27T07:53:48.652Z,38.90
2018-03-27T07:54:48.615Z,39.80
2018-03-27T07:55:48.624Z,37.20
2018-03-27T07:56:48.562Z,35.20
2018-03-27T07:57:48.541Z,34.50
2018-03-27T07:58:48.498Z,32.70
2018-03-27T07:59:48.476Z,36.90
2018-03-27T08:00:48.455Z,33.20
2018-03-27T08:01:48.445Z,32.60
2018-03-27T08:02:48.396Z,29.80
2018-03-27T08:03:48.370Z,28.60
2018-03-27T08:04:48.482Z,28.20
2018-03-27T08:05:48.322Z,23.80
2018-03-27T08:06:48.299Z,28.60
2018-03-27T08:07:48.275Z,26.10
2018-03-27T08:08:48.330Z,24.70
2018-03-27T08:09:48.206Z,22.80
2018-03-27T08:10:48.188Z,23.20
2018-03-27T08:11:48.170Z,21.40
2018-03-27T08:12:48.147Z,20.60
2018-03-27T08:13:48.118Z,19.80
2018-03-27T08:14:48.093Z,20.50
2018-03-27T08:15:48.109Z,17.90
2018-03-27T08:16:48.027Z,17.80
2018-03-27T08:17:47.996Z,17.50
2018-03-27T08:18:47.984Z,17.60
2018-03-27T08:19:47.949Z,16.80
2018-03-27T08:20:47.938Z,15.90
2018-03-27T08:21:47.918Z,16.40
2018-03-27T08:22:47.859Z,16.00
2018-03-27T08:23:47.828Z,15.50
2018-03-27T08:24:47.814Z,14.20
2018-03-27T08:25:47.786Z,14.30
2018-03-27T08:26:47.755Z,13.90
2018-03-27T08:27:47.730Z,15.00
2018-03-27T08:28:47.691Z,15.20
2018-03-27T08:29:47.681Z,14.80
2018-03-27T08:30:47.646Z,16.70
2018-03-27T08:31:47.619Z,12.30
2018-03-27T08:32:47.594Z,14.30
2018-03-27T08:33:47.569Z,13.30
2018-03-27T08:34:47.536Z,12.10
2018-03-27T08:35:47.519Z,13.20
2018-03-27T08:36:47.490Z,14.70
2018-03-27T08:37:47.464Z,15.30
2018-03-27T08:38:47.438Z,15.30
2018-03-27T08:39:47.409Z,15.80
2018-03-27T08:40:47.385Z,16.20
2018-03-27T08:41:47.362Z,17.30
2018-03-27T08:42:47.325Z,16.60
2018-03-27T08:43:47.302Z,16.20
2018-03-27T08:44:47.277Z,15.70
2018-03-27T08:45:47.257Z,16.20
2018-03-27T08:46:47.222Z,15.80
2018-03-27T08:47:47.197Z,14.90
2018-03-27T08:48:47.171Z,14.00
2018-03-27T08:49:47.141Z,15.20
2018-03-27T08:50:47.123Z,15.90
2018-03-27T08:51:47.094Z,15.70
2018-03-27T08:52:47.061Z,15.30
2018-03-27T08:53:47.057Z,16.50
2018-03-27T08:54:47.058Z,16.00
2018-03-27T08:55:46.975Z,17.30
2018-03-27T08:56:46.965Z,16.50
2018-03-27T08:57:46.927Z,15.80
2018-03-27T08:58:46.910Z,14.30
2018-03-27T08:59:46.938Z,13.70
2018-03-27T09:00:46.846Z,16.10
2018-03-27T09:01:46.831Z,15.80
2018-03-27T09:02:46.792Z,17.30
2018-03-27T09:03:46.776Z,14.60
2018-03-27T09:04:46.745Z,13.20
2018-03-27T09:05:46.724Z,14.70
2018-03-27T09:06:46.690Z,15.20
2018-03-27T09:07:46.665Z,16.60
2018-03-27T09:08:46.646Z,16.00
2018-03-27T09:09:46.614Z,15.80
2018-03-27T09:10:46.582Z,15.80
2018-03-27T09:11:46.557Z,15.40
2018-03-27T09:12:46.540Z,17.40
2018-03-27T09:13:46.504Z,15.00
2018-03-27T09:14:46.489Z,17.00
2018-03-27T09:15:46.458Z,16.10
2018-03-27T09:16:46.427Z,15.90
2018-03-27T09:17:46.421Z,16.60
2018-03-27T09:18:46.377Z,17.60
2018-03-27T09:19:46.347Z,16.20
2018-03-27T09:20:46.324Z,16.90
2018-03-27T09:21:46.289Z,16.60
2018-03-27T09:22:46.277Z,15.70
2018-03-27T09:23:46.247Z,15.60
2018-03-27T09:24:46.216Z,15.90
2018-03-27T09:25:46.194Z,17.30
2018-03-27T09:26:46.167Z,15.10
2018-03-27T09:27:46.141Z,13.20
2018-03-27T09:28:46.115Z,14.00
2018-03-27T09:29:46.087Z,12.50
2018-03-27T09:30:46.069Z,12.30
2018-03-27T09:31:46.033Z,13.60
2018-03-27T09:32:46.012Z,13.60
2018-03-27T09:33:45.984Z,12.60
2018-03-27T09:34:45.947Z,12.90
2018-03-27T09:35:45.931Z,12.10
2018-03-27T09:36:45.906Z,12.00
2018-03-27T09:37:45.881Z,10.60
2018-03-27T09:38:45.849Z,9.40
2018-03-27T09:39:45.830Z,9.70
2018-03-27T09:40:45.797Z,10.20
2018-03-27T09:41:45.772Z,9.70
2018-03-27T09:42:45.746Z,9.40
2018-03-27T09:43:45.720Z,11.20
2018-03-27T09:44:45.733Z,9.90
2018-03-27T09:45:45.668Z,11.30
2018-03-27T09:46:45.657Z,10.30
2018-03-27T09:47:45.630Z,11.00
2018-03-27T09:48:45.598Z,10.40
2018-03-27T09:49:45.570Z,11.50
2018-03-27T09:50:45.537Z,11.70
2018-03-27T09:51:45.525Z,10.00
2018-03-27T09:52:45.491Z,11.80
2018-03-27T09:53:45.472Z,13.20
2018-03-27T09:54:45.436Z,12.00
2018-03-27T09:55:45.421Z,15.00
2018-03-27T09:56:45.385Z,14.90
2018-03-27T09:57:45.361Z,15.10
2018-03-27T09:58:45.362Z,13.70
2018-03-27T09:59:45.319Z,14.10
2018-03-27T10:00:45.287Z,14.90
2018-03-27T10:01:45.266Z,12.30
2018-03-27T10:02:45.240Z,12.10
2018-03-27T10:03:45.212Z,12.20
2018-03-27T10:04:45.194Z,11.70
2018-03-27T10:05:45.163Z,12.70
2018-03-27T10:06:45.138Z,10.50
2018-03-27T10:07:45.112Z,10.60
2018-03-27T10:08:45.091Z,13.80
2018-03-27T10:09:45.068Z,15.50
2018-03-27T10:10:45.045Z,14.40
2018-03-27T10:11:45.007Z,14.80
2018-03-27T10:12:44.988Z,14.50
2018-03-27T10:13:44.989Z,13.10
2018-03-27T10:14:44.936Z,13.20
2018-03-27T10:15:44.937Z,12.80
2018-03-27T10:16:44.885Z,13.20
2018-03-27T10:17:44.880Z,12.90
2018-03-27T10:18:44.854Z,13.50
2018-03-27T10:19:44.822Z,15.60
2018-03-27T10:20:44.797Z,11.40
2018-03-27T10:21:44.769Z,12.80
2018-03-27T10:22:44.742Z,13.40
2018-03-27T10:23:44.728Z,12.70
2018-03-27T10:24:44.699Z,13.40
2018-03-27T10:25:44.669Z,13.40
2018-03-27T10:26:44.651Z,12.90
2018-03-27T10:27:44.618Z,13.40
2018-03-27T10:28:44.601Z,13.30
2018-03-27T10:29:44.579Z,12.60
2018-03-27T10:30:44.550Z,13.80
2018-03-27T10:31:44.530Z,13.30
2018-03-27T10:32:44.507Z,11.60
2018-03-27T10:33:44.478Z,14.10
2018-03-27T10:34:44.454Z,12.40
2018-03-27T10:35:44.435Z,13.30
2018-03-27T10:36:44.399Z,12.00
2018-03-27T10:37:44.382Z,13.70
2018-03-27T10:38:44.352Z,13.40
2018-03-27T10:39:44.324Z,12.20
2018-03-27T10:40:44.307Z,13.10
2018-03-27T10:41:44.282Z,12.60
2018-03-27T10:42:44.255Z,12.00
2018-03-27T10:43:44.236Z,13.90
2018-03-27T10:44:44.208Z,12.30
2018-03-27T10:45:44.183Z,12.10
2018-03-27T10:46:44.162Z,13.50
2018-03-27T10:47:44.135Z,13.50
2018-03-27T10:48:44.112Z,14.10
2018-03-27T10:49:44.081Z,13.40
2018-03-27T10:50:44.066Z,12.10
2018-03-27T10:51:44.036Z,12.70
2018-03-27T10:52:44.014Z,13.20
2018-03-27T10:53:43.997Z,12.70
2018-03-27T10:54:43.964Z,12.40
2018-03-27T10:55:44.003Z,10.10
2018-03-27T10:56:43.913Z,13.10
2018-03-27T10:57:43.894Z,12.50
2018-03-27T10:58:43.941Z,10.90
2018-03-27T10:59:43.843Z,11.40
2018-03-27T11:00:43.823Z,11.80
2018-03-27T11:01:43.794Z,10.80
2018-03-27T11:02:43.772Z,11.70
2018-03-27T11:03:43.754Z,11.50
2018-03-27T11:04:43.719Z,10.60
2018-03-27T11:05:43.699Z,11.60
2018-03-27T11:06:43.671Z,12.30
2018-03-27T11:07:43.648Z,11.60
2018-03-27T11:08:43.619Z,12.10
2018-03-27T11:09:43.597Z,12.00
2018-03-27T11:10:43.579Z,11.10
2018-03-27T11:11:43.548Z,12.00
2018-03-27T11:12:43.528Z,12.40
2018-03-27T11:13:43.500Z,11.70
2018-03-27T11:14:43.471Z,12.70
2018-03-27T11:15:43.456Z,10.00
2018-03-27T11:16:43.425Z,11.40
2018-03-27T11:17:43.407Z,12.40
2018-03-27T11:18:43.377Z,12.20
2018-03-27T11:19:43.347Z,11.20
2018-03-27T11:20:43.329Z,11.80
2018-03-27T11:21:43.303Z,12.20
2018-03-27T11:22:43.284Z,12.70
2018-03-27T11:23:43.257Z,12.20
2018-03-27T11:24:43.226Z,11.70
2018-03-27T11:25:43.213Z,11.70
2018-03-27T11:26:43.183Z,11.30
2018-03-27T11:27:43.169Z,13.40
2018-03-27T11:28:43.127Z,12.40
2018-03-27T11:29:43.108Z,12.70
2018-03-27T11:30:43.086Z,12.40
2018-03-27T11:31:43.063Z,11.70
2018-03-27T11:32:43.035Z,11.60
2018-03-27T11:33:43.016Z,12.20
2018-03-27T11:34:42.995Z,11.70
2018-03-27T11:35:42.971Z,12.60
2018-03-27T11:36:42.936Z,13.70
2018-03-27T11:37:42.916Z,11.40
2018-03-27T11:38:42.894Z,13.00
2018-03-27T11:39:42.862Z,12.80
2018-03-27T11:40:42.848Z,11.80
2018-03-27T11:41:42.822Z,12.70
2018-03-27T11:42:42.797Z,11.40
2018-03-27T11:43:42.771Z,12.30
2018-03-27T11:44:42.758Z,11.20
2018-03-27T11:45:42.717Z,13.10
2018-03-27T11:46:42.703Z,12.20
2018-03-27T11:47:42.674Z,11.60
2018-03-27T11:48:42.653Z,13.00
2018-03-27T11:49:42.633Z,13.80
2018-03-27T11:50:42.608Z,13.00
2018-03-27T11:51:42.580Z,13.10
2018-03-27T11:52:42.553Z,14.20
2018-03-27T11:53:42.536Z,14.70
2018-03-27T11:54:42.509Z,13.20
2018-03-27T11:55:42.488Z,14.80
2018-03-27T11:56:42.464Z,15.30
2018-03-27T11:57:42.441Z,17.00
2018-03-27T11:58:42.417Z,15.80
2018-03-27T11:59:42.393Z,17.60
2018-03-27T12:00:42.365Z,15.20
2018-03-27T12:01:42.342Z,15.10
2018-03-27T12:02:42.325Z,16.00
2018-03-27T12:03:42.295Z,16.80
2018-03-27T12:04:42.280Z,17.20
2018-03-27T12:05:42.248Z,14.80
2018-03-27T12:06:42.229Z,18.80
2018-03-27T12:07:42.206Z,17.10
2018-03-27T12:08:42.172Z,18.80
2018-03-27T12:09:42.151Z,18.10
2018-03-27T12:10:42.135Z,16.50
2018-03-27T12:11:42.116Z,18.00
2018-03-27T12:12:42.088Z,18.90
2018-03-27T12:13:42.064Z,17.40
2018-03-27T12:14:42.042Z,18.20
2018-03-27T12:15:42.006Z,17.10
2018-03-27T12:16:41.991Z,18.90
2018-03-27T12:17:41.963Z,18.80
2018-03-27T12:18:41.941Z,17.10
2018-03-27T12:19:41.918Z,18.80
2018-03-27T12:20:41.884Z,19.50
2018-03-27T12:21:41.865Z,19.90
2018-03-27T12:22:41.847Z,21.20
2018-03-27T12:23:41.822Z,18.90
2018-03-27T12:24:41.794Z,20.20
2018-03-27T12:25:41.772Z,18.60
2018-03-27T12:26:41.750Z,20.20
2018-03-27T12:27:41.722Z,18.40
2018-03-27T12:28:41.698Z,19.90
2018-03-27T12:29:41.686Z,19.70
2018-03-27T12:30:41.650Z,20.30
2018-03-27T12:31:41.658Z,18.80
2018-03-27T12:32:41.603Z,18.20
2018-03-27T12:33:41.588Z,18.60
2018-03-27T12:34:41.558Z,18.50
2018-03-27T12:35:41.537Z,17.70
2018-03-27T12:36:41.508Z,18.00
2018-03-27T12:37:41.483Z,19.20
2018-03-27T12:38:41.468Z,18.90
2018-03-27T12:39:41.436Z,21.10
2018-03-27T12:40:41.416Z,18.00
2018-03-27T12:41:41.393Z,19.10
2018-03-27T12:42:41.365Z,18.30
2018-03-27T12:43:41.344Z,19.70